createdAt,value
2023-04-18T00:01:43.144Z,85.14
2023-04-18T00:04:51.347Z,85.66
2023-04-18T00:08:13.687Z,85.83
2023-04-18T00:11:34.077Z,86.01
2023-04-18T00:14:38.086Z,85.96
2023-04-18T00:18:14.360Z,85.91
2023-04-18T00:21:40.385Z,86.28
2023-04-18T00:25:09.584Z,86.43
2023-04-18T00:28:33.976Z,86.67
2023-04-18T00:32:11.831Z,86.78
2023-04-18T00:35:39.448Z,86.82
2023-04-18T00:39:01.686Z,86.85
2023-04-18T00:42:33.467Z,86.99
2023-04-18T00:45:39.613Z,86.84
2023-04-18T00:49:11.071Z,87.11
2023-04-18T00:52:39.868Z,87.28
2023-04-18T00:56:06.304Z,87.38
2023-04-18T00:59:33.654Z,87.44
2023-04-18T01:02:53.393Z,87.80
2023-04-18T01:06:33.084Z,87.56
2023-04-18T01:09:58.914Z,87.55
2023-04-18T01:13:50.024Z,87.99
2023-04-18T01:17:06.632Z,87.74
2023-04-18T01:24:30.446Z,87.99
2023-04-18T01:27:34.236Z,87.76
2023-04-18T01:31:05.402Z,87.64
2023-04-18T01:34:20.560Z,87.94
2023-04-18T01:37:39.933Z,87.90
2023-04-18T01:41:14.404Z,88.05
2023-04-18T01:44:34.601Z,88.18
2023-04-18T01:47:43.086Z,88.48
2023-04-18T01:51:04.493Z,88.03
2023-04-18T01:54:43.624Z,88.00
2023-04-18T01:58:04.323Z,88.20
2023-04-18T02:01:22.997Z,88.11
2023-04-18T02:05:03.657Z,88.25
2023-04-18T02:08:18.207Z,88.09
2023-04-18T02:11:37.483Z,88.40
2023-04-18T02:15:02.590Z,88.39
2023-04-18T02:18:11.515Z,88.34
2023-04-18T02:21:20.243Z,88.17
2023-04-18T02:24:42.101Z,88.43
2023-04-18T02:27:56.055Z,88.38
2023-04-18T02:31:35.874Z,88.34
2023-04-18T02:34:58.001Z,88.62
2023-04-18T02:38:21.671Z,88.67
2023-04-18T02:41:40.741Z,88.50
2023-04-18T02:45:07.074Z,88.92
2023-04-18T02:48:30.854Z,88.61
2023-04-18T02:51:39.572Z,88.65
2023-04-18T02:55:00.425Z,88.72
2023-04-18T02:58:19.282Z,88.72
2023-04-18T03:01:48.407Z,88.89
2023-04-18T03:05:10.748Z,88.92
2023-04-18T03:08:26.979Z,89.08
2023-04-18T03:11:32.320Z,88.85
2023-04-18T03:14:56.620Z,89.07
2023-04-18T03:18:13.627Z,89.05
2023-04-18T03:21:22.554Z,88.96
2023-04-18T03:24:50.833Z,88.86
2023-04-18T03:27:53.099Z,89.15
2023-04-18T03:31:10.250Z,89.18
2023-04-18T03:34:22.935Z,89.41
2023-04-18T03:37:38.418Z,89.36
2023-04-18T03:41:06.406Z,89.27
2023-04-18T03:44:26.787Z,89.28
2023-04-18T03:47:58.330Z,89.45
2023-04-18T03:51:29.900Z,89.52
2023-04-18T03:54:47.125Z,89.54
2023-04-18T03:58:16.738Z,89.60
2023-04-18T04:01:46.664Z,89.48
2023-04-18T04:05:05.157Z,89.98
2023-04-18T04:08:28.236Z,90.00
2023-04-18T04:12:00.564Z,89.86
2023-04-18T04:15:12.956Z,89.78
2023-04-18T04:18:31.916Z,90.04
2023-04-18T04:21:55.859Z,90.11
2023-04-18T04:25:14.055Z,90.21
2023-04-18T04:28:28.909Z,90.37
2023-04-18T04:31:55.786Z,90.38
2023-04-18T04:34:52.295Z,90.53
2023-04-18T04:37:49.441Z,90.76
2023-04-18T04:40:44.338Z,90.78
2023-04-18T04:43:47.172Z,90.76
2023-04-18T04:46:40.599Z,90.81
2023-04-18T04:49:30.975Z,90.78
2023-04-18T04:52:12.976Z,90.88
2023-04-18T04:54:56.200Z,91.05
2023-04-18T04:57:40.787Z,90.73
2023-04-18T05:00:42.515Z,90.72
2023-04-18T05:03:36.885Z,90.99
2023-04-18T05:06:40.237Z,90.78
2023-04-18T05:09:24.249Z,90.67
2023-04-18T05:12:07.578Z,90.88
2023-04-18T05:14:55.711Z,90.85
2023-04-18T05:17:55.059Z,90.89
2023-04-18T05:21:03.130Z,90.88
2023-04-18T05:23:58.836Z,90.92
2023-04-18T05:27:06.234Z,90.74
2023-04-18T05:29:53.039Z,91.25
2023-04-18T05:32:46.209Z,91.01
2023-04-18T05:35:30.240Z,91.22
2023-04-18T05:38:20.232Z,90.88
2023-04-18T05:41:12.361Z,91.00
2023-04-18T05:44:16.839Z,91.09
2023-04-18T05:47:11.177Z,91.03
2023-04-18T05:50:17.334Z,90.96
2023-04-18T05:52:59.457Z,91.32
2023-04-18T05:55:46.757Z,91.28
2023-04-18T05:58:38.684Z,91.10
2023-04-18T06:01:18.968Z,91.23
2023-04-18T06:04:14.381Z,91.10
2023-04-18T06:07:06.992Z,91.26
2023-04-18T06:10:16.682Z,91.01
2023-04-18T06:13:13.683Z,90.95
2023-04-18T06:16:06.953Z,90.96
2023-04-18T06:19:06.265Z,91.07
2023-04-18T06:21:53.355Z,90.99
2023-04-18T06:24:44.986Z,91.00
2023-04-18T06:27:50.123Z,90.82
2023-04-18T06:30:37.034Z,90.74
2023-04-18T06:33:32.342Z,90.69
2023-04-18T06:36:14.120Z,90.86
2023-04-18T06:38:52.987Z,90.87
2023-04-18T06:41:38.746Z,90.93
2023-04-18T06:44:32.211Z,91.06
2023-04-18T06:47:31.872Z,90.89
2023-04-18T06:50:23.742Z,90.71
2023-04-18T06:53:12.430Z,91.05
2023-04-18T06:55:55.923Z,91.33
2023-04-18T06:58:42.941Z,91.42
2023-04-18T07:01:25.893Z,91.03
2023-04-18T07:04:14.499Z,91.37
2023-04-18T07:07:10.130Z,91.28
2023-04-18T07:10:09.130Z,91.54
2023-04-18T07:12:48.073Z,91.41
2023-04-18T07:15:41.098Z,91.48
2023-04-18T07:18:34.254Z,91.71
2023-04-18T07:21:26.821Z,91.91
2023-04-18T07:24:27.240Z,92.01
2023-04-18T07:27:10.560Z,92.47
2023-04-18T07:29:59.103Z,92.31
2023-04-18T07:32:53.420Z,92.19
2023-04-18T07:35:46.956Z,92.27
2023-04-18T07:38:53.014Z,92.58
2023-04-18T07:41:33.168Z,92.56
2023-04-18T07:44:29.606Z,92.73
2023-04-18T07:47:29.416Z,92.65
2023-04-18T07:50:24.967Z,92.70
2023-04-18T07:53:43.697Z,92.78
2023-04-18T07:56:52.004Z,93.20
2023-04-18T07:59:57.043Z,93.20
2023-04-18T08:03:07.696Z,93.06
2023-04-18T08:06:17.044Z,92.83
2023-04-18T08:09:14.327Z,92.97
2023-04-18T08:11:56.914Z,93.05
2023-04-18T08:14:51.092Z,93.12
2023-04-18T08:17:56.019Z,93.18
2023-04-18T08:20:35.371Z,93.29
2023-04-18T08:23:31.695Z,93.31
2023-04-18T08:26:15.536Z,93.43
2023-04-18T08:28:53.430Z,93.75
2023-04-18T08:31:38.060Z,93.66
2023-04-18T08:34:38.001Z,93.40
2023-04-18T08:37:21.947Z,93.24
2023-04-18T08:40:25.150Z,93.20
2023-04-18T08:43:10.311Z,93.33
2023-04-18T08:45:52.832Z,93.12
2023-04-18T08:48:45.364Z,93.16
2023-04-18T08:51:44.153Z,93.34
2023-04-18T08:54:44.273Z,93.26
2023-04-18T08:57:56.506Z,93.34
2023-04-18T09:00:46.355Z,93.39
2023-04-18T09:04:08.933Z,93.57
2023-04-18T09:06:52.975Z,93.34
2023-04-18T09:09:49.276Z,93.40
2023-04-18T09:12:47.964Z,93.23
2023-04-18T09:15:45.837Z,93.18
2023-04-18T09:18:43.358Z,93.39
2023-04-18T09:21:57.748Z,93.45
2023-04-18T09:24:56.862Z,93.57
2023-04-18T09:27:47.752Z,93.61
2023-04-18T09:30:47.659Z,93.64
2023-04-18T09:33:44.961Z,93.66
2023-04-18T09:36:35.448Z,93.57
2023-04-18T09:39:45.702Z,93.57
2023-04-18T09:42:39.964Z,93.60
2023-04-18T09:45:58.131Z,93.72
2023-04-18T09:49:12.964Z,94.04
2023-04-18T09:52:36.334Z,94.13
2023-04-18T09:56:07.279Z,94.29
2023-04-18T09:59:43.541Z,94.40
2023-04-18T10:03:12.176Z,94.37
2023-04-18T10:06:37.754Z,94.63
2023-04-18T10:10:05.027Z,94.30
2023-04-18T10:13:17.881Z,94.44
2023-04-18T10:16:50.501Z,94.38
2023-04-18T10:20:11.913Z,94.32
2023-04-18T10:23:56.186Z,94.52
2023-04-18T10:27:15.679Z,94.29
2023-04-18T10:30:37.497Z,94.10
2023-04-18T10:34:18.479Z,94.23
2023-04-18T10:37:35.279Z,94.40
2023-04-18T10:40:49.534Z,94.24
2023-04-18T10:44:38.118Z,94.23
2023-04-18T10:48:16.320Z,94.43
2023-04-18T10:51:59.124Z,94.22
2023-04-18T11:03:10.622Z,94.08
2023-04-18T11:06:25.942Z,93.88
2023-04-18T11:09:40.585Z,93.69
2023-04-18T11:12:42.566Z,93.86
2023-04-18T11:15:36.031Z,93.34
2023-04-18T11:18:54.993Z,93.75
2023-04-18T11:22:07.816Z,93.60
2023-04-18T11:25:00.791Z,93.30
2023-04-18T11:28:13.684Z,93.12
2023-04-18T11:31:18.521Z,93.09
2023-04-18T11:34:21.204Z,92.89
2023-04-18T11:37:48.660Z,92.99
2023-04-18T11:41:15.528Z,92.93
2023-04-18T11:44:11.987Z,92.99
2023-04-18T11:47:41.957Z,93.03
2023-04-18T11:50:39.322Z,93.14
2023-04-18T11:53:50.396Z,93.14
2023-04-18T11:56:39.559Z,93.16
2023-04-18T11:59:38.863Z,93.06
2023-04-18T12:03:06.234Z,92.86
2023-04-18T12:05:58.548Z,92.67
2023-04-18T12:09:28.628Z,92.93
2023-04-18T12:12:38.415Z,92.96
2023-04-18T12:15:23.511Z,92.90
2023-04-18T12:18:20.239Z,92.97
2023-04-18T12:21:15.244Z,92.76
2023-04-18T12:23:59.591Z,92.92
2023-04-18T12:27:12.105Z,92.73
2023-04-18T12:30:04.241Z,92.34
2023-04-18T12:33:15.826Z,92.12
2023-04-18T12:36:10.666Z,92.14
2023-04-18T12:39:04.910Z,91.97
2023-04-18T12:42:06.468Z,91.93
2023-04-18T12:45:13.543Z,91.65
2023-04-18T12:48:13.363Z,91.70
2023-04-18T12:51:25.173Z,91.57
2023-04-18T12:54:15.353Z,91.64
2023-04-18T12:57:32.047Z,91.45
2023-04-18T13:00:30.372Z,91.15
2023-04-18T13:03:41.912Z,91.19
2023-04-18T13:06:54.562Z,91.01
2023-04-18T13:09:51.067Z,90.78
2023-04-18T13:12:49.695Z,90.55
2023-04-18T13:15:55.048Z,90.74
2023-04-18T13:18:45.493Z,90.73
2023-04-18T13:21:49.478Z,90.85
2023-04-18T13:24:38.351Z,91.07
2023-04-18T13:27:29.696Z,90.92
2023-04-18T13:30:15.893Z,90.27
2023-04-18T13:33:07.958Z,90.61
2023-04-18T13:36:08.229Z,90.02
2023-04-18T13:39:07.647Z,89.89
2023-04-18T13:41:56.187Z,89.62
2023-04-18T13:44:50.777Z,89.22
2023-04-18T13:47:30.566Z,88.99
2023-04-18T13:50:24.529Z,88.29
2023-04-18T13:53:16.320Z,88.04
2023-04-18T13:55:56.677Z,87.75
2023-04-18T13:59:10.280Z,87.63
2023-04-18T14:01:46.908Z,87.51
2023-04-18T14:04:27.655Z,87.40
2023-04-18T14:07:19.789Z,86.89
2023-04-18T14:10:16.020Z,86.88
2023-04-18T14:13:12.656Z,86.71
2023-04-18T14:16:00.855Z,86.33
2023-04-18T14:18:54.463Z,86.02
2023-04-18T14:21:58.382Z,86.13
2023-04-18T14:24:52.658Z,85.98
2023-04-18T14:27:36.351Z,85.95
2023-04-18T14:30:24.436Z,86.02
2023-04-18T14:33:27.424Z,85.67
2023-04-18T14:36:18.230Z,85.63
2023-04-18T14:39:13.451Z,85.38
2023-04-18T14:41:56.144Z,85.20
2023-04-18T14:44:48.997Z,84.98
2023-04-18T14:47:46.607Z,84.94
2023-04-18T14:50:34.500Z,84.81
2023-04-18T14:53:30.005Z,84.66
2023-04-18T14:56:15.998Z,84.55
2023-04-18T14:58:55.734Z,84.37
2023-04-18T15:01:57.538Z,84.40
2023-04-18T15:04:35.080Z,84.12
2023-04-18T15:07:15.251Z,84.11
2023-04-18T15:09:58.260Z,83.99
2023-04-18T15:12:39.538Z,83.66
2023-04-18T15:15:40.112Z,83.71
2023-04-18T15:18:30.368Z,84.01
2023-04-18T15:21:19.014Z,83.92
2023-04-18T15:23:52.613Z,83.91
2023-04-18T15:26:31.694Z,83.98
2023-04-18T15:29:12.835Z,84.06
2023-04-18T15:31:49.473Z,83.91
2023-04-18T15:34:31.381Z,83.89
2023-04-18T15:37:05.807Z,84.16
2023-04-18T15:39:40.134Z,84.05
2023-04-18T15:42:28.168Z,84.24
2023-04-18T15:45:12.709Z,83.96
2023-04-18T15:47:51.714Z,84.00
2023-04-18T15:50:39.269Z,84.26
2023-04-18T15:53:16.653Z,84.42
2023-04-18T15:56:08.070Z,84.36
2023-04-18T15:58:56.210Z,84.26
2023-04-18T16:01:49.287Z,84.23
2023-04-18T16:04:34.261Z,84.41
2023-04-18T16:07:24.090Z,84.30
2023-04-18T16:10:20.668Z,84.45
2023-04-18T16:13:03.354Z,84.49
2023-04-18T16:15:54.539Z,84.61
2023-04-18T16:18:32.478Z,84.53
2023-04-18T16:21:10.896Z,84.80
2023-04-18T16:24:11.808Z,84.65
2023-04-18T16:27:01.301Z,84.87
2023-04-18T16:29:38.903Z,84.72
2023-04-18T16:32:24.405Z,85.20
2023-04-18T16:35:17.936Z,85.21
2023-04-18T16:38:01.992Z,85.06
2023-04-18T16:41:01.746Z,85.05
2023-04-18T16:43:43.896Z,85.14
2023-04-18T16:46:25.622Z,85.21
2023-04-18T16:49:16.391Z,85.23
2023-04-18T16:52:10.365Z,85.08
2023-04-18T16:55:21.863Z,85.32
2023-04-18T16:58:04.469Z,85.43
2023-04-18T17:01:03.248Z,85.47
2023-04-18T17:03:56.596Z,85.68
2023-04-18T17:06:41.795Z,85.54
2023-04-18T17:09:33.812Z,85.74
2023-04-18T17:12:31.885Z,85.65
2023-04-18T17:15:43.064Z,85.76
2023-04-18T17:18:30.901Z,85.99
2023-04-18T17:21:24.875Z,85.87
2023-04-18T17:24:23.258Z,85.91
2023-04-18T17:27:15.084Z,86.04
2023-04-18T17:29:59.336Z,86.10
2023-04-18T17:32:46.186Z,86.13
2023-04-18T17:35:50.561Z,86.06
2023-04-18T17:38:48.958Z,86.06
2023-04-18T17:41:55.508Z,85.97
2023-04-18T17:44:57.788Z,85.93
2023-04-18T17:47:42.602Z,85.91
2023-04-18T17:50:58.022Z,85.97
2023-04-18T17:54:01.027Z,85.80
2023-04-18T17:56:51.200Z,85.81
2023-04-18T17:59:37.846Z,85.79
2023-04-18T18:02:44.917Z,85.79
2023-04-18T18:05:40.922Z,85.89
2023-04-18T18:08:43.197Z,85.54
2023-04-18T18:11:53.981Z,85.64
2023-04-18T18:15:05.783Z,85.64
2023-04-18T18:18:14.648Z,85.46
2023-04-18T18:21:11.588Z,85.43
2023-04-18T18:24:36.019Z,85.35
2023-04-18T18:27:46.889Z,85.67
2023-04-18T18:30:45.696Z,85.48
2023-04-18T18:33:41.297Z,85.60
2023-04-18T18:36:54.216Z,85.72
2023-04-18T18:39:58.748Z,85.53
2023-04-18T18:42:57.730Z,85.50
2023-04-18T18:45:47.622Z,85.51
2023-04-18T18:48:58.082Z,85.57
2023-04-18T18:51:54.413Z,85.64
2023-04-18T18:54:37.532Z,85.81
2023-04-18T18:57:37.955Z,85.88
2023-04-18T19:00:36.442Z,85.78
2023-04-18T19:03:22.849Z,86.06
2023-04-18T19:06:25.420Z,85.86
2023-04-18T19:09:09.978Z,86.03
2023-04-18T19:12:08.768Z,86.21
2023-04-18T19:15:03.277Z,86.31
2023-04-18T19:17:49.066Z,86.25
2023-04-18T19:20:49.572Z,86.29
2023-04-18T19:23:42.431Z,86.33
2023-04-18T19:26:45.308Z,86.56
2023-04-18T19:29:36.418Z,86.65
2023-04-18T19:32:27.842Z,86.74
2023-04-18T19:35:24.330Z,86.78
2023-04-18T19:38:22.557Z,86.72
2023-04-18T19:41:37.413Z,86.69
2023-04-18T19:44:29.346Z,86.66
2023-04-18T19:47:33.413Z,86.67
2023-04-18T19:50:34.396Z,86.78
2023-04-18T19:53:15.885Z,86.80
2023-04-18T19:55:59.416Z,86.70
2023-04-18T19:58:58.003Z,86.81
2023-04-18T20:01:46.756Z,86.84
2023-04-18T20:04:38.426Z,86.95
2023-04-18T20:07:49.944Z,86.95
2023-04-18T20:10:41.483Z,86.85
2023-04-18T20:13:24.707Z,86.90
2023-04-18T20:16:09.120Z,86.74
2023-04-18T20:19:04.162Z,86.79
2023-04-18T20:21:53.019Z,86.89
2023-04-18T20:24:42.900Z,86.99
2023-04-18T20:27:37.800Z,86.95
2023-04-18T20:30:51.369Z,86.84
2023-04-18T20:33:48.691Z,86.85
2023-04-18T20:36:26.087Z,86.85
2023-04-18T20:39:19.747Z,86.83
2023-04-18T20:42:24.074Z,86.75
2023-04-18T20:45:27.978Z,86.90
2023-04-18T20:48:33.316Z,86.73
2023-04-18T20:51:37.249Z,86.79
2023-04-18T20:54:23.322Z,86.79
2023-04-18T20:57:30.207Z,86.83
2023-04-18T21:00:30.528Z,86.92
2023-04-18T21:03:31.287Z,86.86
2023-04-18T21:06:22.196Z,86.99
2023-04-18T21:09:26.588Z,87.01
2023-04-18T21:12:21.794Z,86.60
2023-04-18T21:15:22.637Z,86.70
2023-04-18T21:18:29.952Z,86.57
2023-04-18T21:21:19.905Z,86.56
2023-04-18T21:24:24.837Z,86.50
2023-04-18T21:27:16.971Z,86.44
2023-04-18T21:30:09.355Z,86.53
2023-04-18T21:33:09.536Z,86.32
2023-04-18T21:36:05.147Z,86.31
2023-04-18T21:39:20.756Z,86.22
2023-04-18T21:42:18.909Z,86.29
2023-04-18T21:45:23.177Z,86.27
2023-04-18T21:48:31.853Z,86.29
2023-04-18T21:51:45.998Z,86.32
2023-04-18T21:55:00.354Z,86.27
2023-04-18T21:58:08.970Z,86.19
2023-04-18T22:01:26.760Z,86.20
2023-04-18T22:04:36.713Z,86.33
2023-04-18T22:07:59.170Z,86.29
2023-04-18T22:11:13.839Z,86.19
2023-04-18T22:14:21.462Z,86.05
2023-04-18T22:17:44.598Z,86.17
2023-04-18T22:21:05.837Z,86.08
2023-04-18T22:24:33.565Z,85.89
2023-04-18T22:27:18.269Z,85.87
2023-04-18T22:30:30.460Z,85.87
2023-04-18T22:33:48.893Z,85.95
2023-04-18T22:36:58.767Z,85.94
2023-04-18T22:39:43.939Z,85.91
2023-04-18T22:43:13.057Z,85.56
2023-04-18T22:46:07.966Z,85.47
2023-04-18T22:49:27.514Z,85.25
2023-04-18T22:52:25.913Z,85.26
2023-04-18T22:55:20.892Z,84.99
2023-04-18T22:58:12.541Z,84.81
2023-04-18T23:01:20.243Z,84.76
2023-04-18T23:04:29.243Z,84.68
2023-04-18T23:07:32.004Z,84.72
2023-04-18T23:10:23.037Z,84.88
2023-04-18T23:13:25.104Z,84.92
2023-04-18T23:16:29.279Z,84.89
2023-04-18T23:19:26.269Z,85.00
2023-04-18T23:22:20.557Z,84.89
2023-04-18T23:25:20.377Z,84.94
2023-04-18T23:28:25.576Z,84.88
2023-04-18T23:31:33.024Z,85.03
2023-04-18T23:34:47.558Z,85.01
2023-04-18T23:37:47.900Z,85.06
2023-04-18T23:40:51.793Z,84.94
2023-04-18T23:43:58.367Z,84.94
2023-04-18T23:46:53.348Z,85.00
2023-04-18T23:50:05.830Z,84.97
2023-04-18T23:53:08.968Z,84.94
2023-04-18T23:56:06.957Z,84.98
2023-04-18T23:59:14.950Z,85.11
